Time;durP1;ratioP1;P1;durP2;ratioP2;P2;SDS_P1;SDS_P2;PMS_P1;PMS_P2;Temp;Humidity;BMP_temperature;BMP_pressure;BME280_temperature;BME280_humidity;BME280_pressure;Samples;Min_cycle;Max_cycle;Signal;HPM_P1;HPM_P2
2023/12/10 00:00:00;;;;;;;1.50;1.25;;;;;;;;;;10342333;28;20495;-71
2023/12/10 00:05:01;;;;;;;1.97;1.60;;;;;;;;;;10345363;28;20567;-72
2023/12/10 00:10:01;;;;;;;5.20;1.60;;;;;;;;;;10350819;28;20203;-72
2023/12/10 00:15:01;;;;;;;1.80;1.70;;;;;;;;;;10345466;28;20201;-71
2023/12/10 00:20:01;;;;;;;1.60;1.50;;;;;;;;;;10346071;28;20210;-71
2023/12/10 00:25:02;;;;;;;1.40;1.25;;;;;;;;;;10349196;28;20229;-72
2023/12/10 00:30:04;;;;;;;1.40;1.30;;;;;;;;;;10345290;28;20248;-72
2023/12/10 00:35:04;;;;;;;5.40;1.17;;;;;;;;;;10345204;28;20197;-72
2023/12/10 00:40:06;;;;;;;0.80;0.80;;;;;;;;;;10345465;28;20629;-72
2023/12/10 00:45:06;;;;;;;1.17;1.07;;;;;;;;;;10336910;28;20303;-72
2023/12/10 00:50:07;;;;;;;0.87;0.87;;;;;;;;;;10340754;28;20193;-72
2023/12/10 00:55:07;;;;;;;1.00;1.00;;;;;;;;;;10344966;28;20248;-71
2023/12/10 01:00:07;;;;;;;1.00;1.00;;;;;;;;;;10344743;28;20830;-72
2023/12/10 01:05:08;;;;;;;0.90;0.90;;;;;;;;;;10342288;28;20567;-72
2023/12/10 01:10:08;;;;;;;0.70;0.70;;;;;;;;;;10343230;28;20204;-71
2023/12/10 01:15:10;;;;;;;0.80;0.80;;;;;;;;;;10343332;28;20438;-72
2023/12/10 01:20:10;;;;;;;2.00;0.73;;;;;;;;;;10343714;28;20224;-72
2023/12/10 01:25:13;;;;;;;0.80;0.80;;;;;;;;;;10342599;28;20232;-72
2023/12/10 01:30:14;;;;;;;0.80;0.80;;;;;;;;;;10346512;28;20201;-72
2023/12/10 01:35:14;;;;;;;0.70;0.70;;;;;;;;;;10342799;28;20189;-73
2023/12/10 01:40:14;;;;;;;1.37;0.73;;;;;;;;;;10343687;28;20255;-73
2023/12/10 01:45:15;;;;;;;1.10;1.00;;;;;;;;;;10342202;28;20211;-74
2023/12/10 01:50:15;;;;;;;2.10;0.87;;;;;;;;;;10343053;28;20204;-74
2023/12/10 01:55:16;;;;;;;0.80;0.80;;;;;;;;;;10342996;28;20200;-73
2023/12/10 02:00:18;;;;;;;0.67;0.67;;;;;;;;;;10341030;28;20260;-73
2023/12/10 02:05:18;;;;;;;0.77;0.77;;;;;;;;;;10356476;28;20191;-73
2023/12/10 02:10:19;;;;;;;1.07;0.90;;;;;;;;;;10341823;28;20556;-73
2023/12/10 02:15:19;;;;;;;0.77;0.77;;;;;;;;;;10342415;28;20189;-72
2023/12/10 02:20:20;;;;;;;0.90;0.90;;;;;;;;;;10342202;28;20213;-72
2023/12/10 02:25:27;;;;;;;0.73;0.73;;;;;;;;;;10340886;28;20770;-72
2023/12/10 02:30:27;;;;;;;0.60;0.60;;;;;;;;;;10346185;28;20338;-72
2023/12/10 02:35:28;;;;;;;0.83;0.70;;;;;;;;;;10348933;28;20204;-72
2023/12/10 02:40:28;;;;;;;0.80;0.80;;;;;;;;;;10349247;28;20337;-72
2023/12/10 02:45:28;;;;;;;3.03;1.17;;;;;;;;;;10348413;28;20555;-73
2023/12/10 02:50:28;;;;;;;0.93;0.90;;;;;;;;;;10349036;28;20197;-72
2023/12/10 02:55:29;;;;;;;1.80;0.80;;;;;;;;;;10347997;28;20201;-72
2023/12/10 03:00:29;;;;;;;0.80;0.80;;;;;;;;;;10348156;28;20558;-72
2023/12/10 03:05:29;;;;;;;1.13;1.10;;;;;;;;;;10348058;28;20236;-72
2023/12/10 03:10:29;;;;;;;0.80;0.80;;;;;;;;;;10347478;28;20449;-72
2023/12/10 03:15:30;;;;;;;0.90;0.90;;;;;;;;;;10347821;28;20210;-71
2023/12/10 03:20:30;;;;;;;1.30;1.20;;;;;;;;;;10347499;28;20579;-72
2023/12/10 03:25:30;;;;;;;2.07;1.37;;;;;;;;;;10346697;28;20242;-72
2023/12/10 03:30:30;;;;;;;3.57;1.53;;;;;;;;;;10347363;28;20198;-72
2023/12/10 03:35:30;;;;;;;4.13;1.83;;;;;;;;;;10346684;28;20655;-72
2023/12/10 03:40:31;;;;;;;2.90;1.80;;;;;;;;;;10345490;28;20226;-72
2023/12/10 03:45:31;;;;;;;4.10;1.50;;;;;;;;;;10346090;28;20209;-71
2023/12/10 03:50:31;;;;;;;3.00;1.90;;;;;;;;;;10345847;28;20539;-72
2023/12/10 03:55:32;;;;;;;2.50;2.00;;;;;;;;;;10344804;28;20196;-71
2023/12/10 04:00:32;;;;;;;11.40;2.43;;;;;;;;;;10344779;28;20582;-71
2023/12/10 04:05:32;;;;;;;6.43;2.17;;;;;;;;;;10345045;28;20226;-72
2023/12/10 04:10:33;;;;;;;13.40;2.30;;;;;;;;;;10344894;28;20190;-72
2023/12/10 04:15:33;;;;;;;5.57;2.67;;;;;;;;;;10344505;28;20767;-72
2023/12/10 04:20:33;;;;;;;6.60;2.90;;;;;;;;;;10344775;28;20213;-72
2023/12/10 04:25:33;;;;;;;8.43;2.57;;;;;;;;;;10342339;28;20241;-72
2023/12/10 04:30:34;;;;;;;10.07;2.70;;;;;;;;;;10340548;28;20455;-72
2023/12/10 04:35:34;;;;;;;5.30;2.27;;;;;;;;;;10347668;28;20567;-72
2023/12/10 04:40:34;;;;;;;4.53;2.60;;;;;;;;;;10347925;28;20359;-72
2023/12/10 04:45:35;;;;;;;8.13;2.23;;;;;;;;;;10347932;28;20198;-72
2023/12/10 04:50:35;;;;;;;7.27;2.40;;;;;;;;;;10347263;28;20296;-72
2023/12/10 04:55:35;;;;;;;8.25;2.47;;;;;;;;;;10347417;28;20208;-72
2023/12/10 05:00:36;;;;;;;7.87;2.47;;;;;;;;;;10347706;28;20711;-72
2023/12/10 05:05:36;;;;;;;10.07;3.00;;;;;;;;;;10347009;28;20194;-72
2023/12/10 05:10:36;;;;;;;5.77;2.37;;;;;;;;;;10347809;28;20453;-72
2023/12/10 05:15:37;;;;;;;5.73;2.13;;;;;;;;;;10346735;28;20194;-72
2023/12/10 05:20:37;;;;;;;5.17;2.00;;;;;;;;;;10347148;28;20779;-72
2023/12/10 05:25:37;;;;;;;10.13;2.40;;;;;;;;;;10346618;28;20229;-72
2023/12/10 05:30:37;;;;;;;10.97;2.47;;;;;;;;;;10347572;28;20190;-72
2023/12/10 05:35:38;;;;;;;7.80;2.50;;;;;;;;;;10344282;28;20566;-72
2023/12/10 05:40:38;;;;;;;10.70;2.57;;;;;;;;;;10346379;28;20504;-71
2023/12/10 05:45:38;;;;;;;13.40;2.83;;;;;;;;;;10346767;28;20571;-71
2023/12/10 05:50:38;;;;;;;14.67;3.30;;;;;;;;;;10345841;28;20198;-71
2023/12/10 05:55:39;;;;;;;9.95;2.03;;;;;;;;;;10346581;28;20277;-71
2023/12/10 06:00:39;;;;;;;11.47;2.20;;;;;;;;;;10345725;28;20651;-71
2023/12/10 06:05:40;;;;;;;10.73;2.70;;;;;;;;;;10345934;28;20182;-71
2023/12/10 06:10:41;;;;;;;18.47;3.13;;;;;;;;;;10353824;28;20190;-71
2023/12/10 06:15:41;;;;;;;10.33;2.10;;;;;;;;;;10346877;28;20284;-71
2023/12/10 06:20:41;;;;;;;9.37;2.13;;;;;;;;;;10353640;28;20363;-71
2023/12/10 06:25:41;;;;;;;14.50;2.55;;;;;;;;;;10352985;28;20261;-71
2023/12/10 06:30:42;;;;;;;14.40;2.47;;;;;;;;;;10353082;28;20201;-71
2023/12/10 06:35:42;;;;;;;16.03;2.67;;;;;;;;;;10352263;28;20201;-71
2023/12/10 06:40:42;;;;;;;14.23;2.70;;;;;;;;;;10352835;28;20396;-71
2023/12/10 06:45:43;;;;;;;13.97;2.73;;;;;;;;;;10351574;28;20335;-71
2023/12/10 06:50:43;;;;;;;17.30;3.77;;;;;;;;;;10352622;28;20194;-71
2023/12/10 06:55:44;;;;;;;14.37;4.17;;;;;;;;;;10351067;28;20186;-71
2023/12/10 07:00:44;;;;;;;13.23;2.63;;;;;;;;;;10351905;28;20749;-71
2023/12/10 07:05:44;;;;;;;10.93;3.97;;;;;;;;;;10352002;28;20244;-71
2023/12/10 07:10:45;;;;;;;491.90;220.60;;;;;;;;;;10351796;28;20182;-71
2023/12/10 07:15:45;;;;;;;21.00;6.70;;;;;;;;;;10351205;28;20198;-71
2023/12/10 07:20:46;;;;;;;13.33;3.10;;;;;;;;;;10351345;28;20222;-71
2023/12/10 07:25:46;;;;;;;20.77;4.50;;;;;;;;;;10365274;28;20234;-71
2023/12/10 07:30:46;;;;;;;14.37;3.93;;;;;;;;;;10350852;28;20601;-71
2023/12/10 07:35:46;;;;;;;20.10;3.43;;;;;;;;;;10344454;28;20623;-71
2023/12/10 07:40:47;;;;;;;10.67;2.40;;;;;;;;;;10350991;28;20687;-72
2023/12/10 07:45:47;;;;;;;24.47;4.30;;;;;;;;;;10349823;28;20527;-71
2023/12/10 07:50:47;;;;;;;20.20;2.93;;;;;;;;;;10350206;28;20289;-72
2023/12/10 07:55:48;;;;;;;20.70;4.33;;;;;;;;;;10349792;28;20591;-71
2023/12/10 08:00:48;;;;;;;19.13;4.00;;;;;;;;;;10349832;28;20229;-71
2023/12/10 08:05:49;;;;;;;24.97;3.73;;;;;;;;;;10348246;28;20194;-71
2023/12/10 08:10:49;;;;;;;28.90;4.23;;;;;;;;;;10347853;28;20637;-71
2023/12/10 08:15:50;;;;;;;18.03;3.20;;;;;;;;;;10348801;28;20193;-71
2023/12/10 08:20:50;;;;;;;22.25;4.47;;;;;;;;;;10349213;28;20233;-71
2023/12/10 08:25:50;;;;;;;33.37;8.50;;;;;;;;;;10347013;28;20226;-71
2023/12/10 08:30:50;;;;;;;18.40;3.80;;;;;;;;;;10348754;28;20197;-71
2023/12/10 08:35:50;;;;;;;30.13;4.37;;;;;;;;;;10348373;28;20194;-72
2023/12/10 08:40:51;;;;;;;16.30;4.00;;;;;;;;;;10348174;28;20531;-72
2023/12/10 08:45:51;;;;;;;22.83;4.30;;;;;;;;;;10342451;28;20189;-72
2023/12/10 08:50:51;;;;;;;16.63;3.60;;;;;;;;;;10332376;28;20659;-72
2023/12/10 08:55:52;;;;;;;75.00;26.20;;;;;;;;;;10344037;28;20194;-72
2023/12/10 09:00:52;;;;;;;51.30;19.13;;;;;;;;;;10339776;28;20594;-72
2023/12/10 09:05:52;;;;;;;21.63;8.33;;;;;;;;;;10347509;28;20259;-72
2023/12/10 09:10:53;;;;;;;25.43;6.73;;;;;;;;;;10347343;28;20965;-72
2023/12/10 09:15:54;;;;;;;22.43;9.07;;;;;;;;;;10347253;28;20344;-71
2023/12/10 09:20:54;;;;;;;30.20;11.73;;;;;;;;;;10347384;28;20225;-71
2023/12/10 09:25:54;;;;;;;19.90;7.97;;;;;;;;;;10346190;28;20256;-71
2023/12/10 09:30:55;;;;;;;16.40;3.33;;;;;;;;;;10347416;28;20304;-71
2023/12/10 09:35:55;;;;;;;14.87;3.23;;;;;;;;;;10346446;28;20229;-71
2023/12/10 09:40:56;;;;;;;18.47;3.07;;;;;;;;;;10353501;28;20248;-71
2023/12/10 09:45:56;;;;;;;19.80;4.70;;;;;;;;;;10353370;28;20663;-71
2023/12/10 09:50:57;;;;;;;12.07;2.90;;;;;;;;;;10354737;28;20275;-71
2023/12/10 09:55:57;;;;;;;16.13;3.37;;;;;;;;;;10351042;28;20240;-71
2023/12/10 10:00:59;;;;;;;9.00;1.87;;;;;;;;;;10354448;28;20224;-72
2023/12/10 10:06:00;;;;;;;8.77;2.73;;;;;;;;;;10354168;28;20629;-71
2023/12/10 10:11:00;;;;;;;12.93;2.77;;;;;;;;;;10351695;28;20562;-71
2023/12/10 10:16:10;;;;;;;16.83;3.03;;;;;;;;;;10346610;28;20244;-71
2023/12/10 10:21:10;;;;;;;7.93;2.37;;;;;;;;;;10348135;28;20279;-71
2023/12/10 10:26:11;;;;;;;15.87;2.80;;;;;;;;;;10344114;28;20754;-72
2023/12/10 10:31:11;;;;;;;11.87;2.10;;;;;;;;;;10333788;28;20544;-72
2023/12/10 10:36:12;;;;;;;9.43;1.93;;;;;;;;;;10333532;28;20202;-72
2023/12/10 10:41:12;;;;;;;12.43;2.43;;;;;;;;;;10337055;28;20264;-73
2023/12/10 10:46:13;;;;;;;8.40;1.80;;;;;;;;;;10337843;28;20221;-73
2023/12/10 10:51:13;;;;;;;9.83;2.40;;;;;;;;;;10341584;28;20247;-73
2023/12/10 10:56:14;;;;;;;9.33;2.60;;;;;;;;;;10343044;28;20182;-73
2023/12/10 11:01:33;;;;;;;8.37;2.17;;;;;;;;;;10342424;28;20265;-73
2023/12/10 11:06:36;;;;;;;5.37;2.23;;;;;;;;;;10342840;28;20190;-73
2023/12/10 11:11:39;;;;;;;4.97;2.20;;;;;;;;;;10344526;28;20668;-73
2023/12/10 11:16:40;;;;;;;8.20;2.10;;;;;;;;;;10350963;28;20195;-73
2023/12/10 11:21:41;;;;;;;5.57;1.40;;;;;;;;;;10351141;28;20221;-72
2023/12/10 11:26:41;;;;;;;4.13;1.83;;;;;;;;;;10342290;28;20703;-72
2023/12/10 11:31:42;;;;;;;7.43;2.27;;;;;;;;;;10347108;28;20198;-72
2023/12/10 11:36:49;;;;;;;11.33;2.97;;;;;;;;;;10344766;28;20499;-72
2023/12/10 11:41:50;;;;;;;15.50;4.67;;;;;;;;;;10346523;28;20280;-73
2023/12/10 11:46:50;;;;;;;14.30;3.90;;;;;;;;;;10346951;28;20248;-71
2023/12/10 11:51:51;;;;;;;17.13;5.10;;;;;;;;;;10347158;28;20212;-72
2023/12/10 11:56:51;;;;;;;11.10;2.63;;;;;;;;;;10331639;28;20278;-72
2023/12/10 12:01:51;;;;;;;4.30;1.20;;;;;;;;;;10347537;28;20229;-72
2023/12/10 12:06:51;;;;;;;10.97;2.70;;;;;;;;;;10348532;28;20186;-72
2023/12/10 12:11:52;;;;;;;12.50;2.90;;;;;;;;;;10347750;28;20739;-72
2023/12/10 12:16:52;;;;;;;13.43;3.13;;;;;;;;;;10348451;28;21373;-72
2023/12/10 12:21:52;;;;;;;7.00;2.43;;;;;;;;;;10350455;28;20664;-72
2023/12/10 12:26:54;;;;;;;12.07;3.70;;;;;;;;;;10347907;28;20234;-72
2023/12/10 12:31:54;;;;;;;22.60;5.77;;;;;;;;;;10330937;28;20198;-72
2023/12/10 12:36:54;;;;;;;16.37;3.70;;;;;;;;;;10309834;28;20205;-72
2023/12/10 12:41:55;;;;;;;17.37;3.80;;;;;;;;;;10310582;28;20488;-72
2023/12/10 12:46:55;;;;;;;18.63;7.17;;;;;;;;;;10309709;28;20189;-72
2023/12/10 12:51:55;;;;;;;17.27;4.83;;;;;;;;;;10313190;28;20204;-72
2023/12/10 12:56:55;;;;;;;17.13;3.53;;;;;;;;;;10312028;28;20686;-72
2023/12/10 13:01:56;;;;;;;16.50;4.00;;;;;;;;;;10335041;28;20216;-71
2023/12/10 13:06:56;;;;;;;19.13;4.23;;;;;;;;;;10345270;28;20205;-71
2023/12/10 13:11:57;;;;;;;14.47;2.83;;;;;;;;;;10349247;28;20798;-72
2023/12/10 13:16:57;;;;;;;15.40;3.30;;;;;;;;;;10348815;28;20189;-72
2023/12/10 13:21:58;;;;;;;22.77;5.83;;;;;;;;;;10345971;28;20586;-71
2023/12/10 13:26:58;;;;;;;11.00;2.90;;;;;;;;;;10345477;28;20294;-72
2023/12/10 13:31:58;;;;;;;16.10;3.10;;;;;;;;;;10345762;28;20398;-72
2023/12/10 13:36:59;;;;;;;24.57;8.20;;;;;;;;;;10345849;28;20436;-72
2023/12/10 13:41:59;;;;;;;15.40;2.83;;;;;;;;;;10345993;28;20636;-72
2023/12/10 13:46:59;;;;;;;18.03;3.27;;;;;;;;;;10345018;28;20248;-72
2023/12/10 13:51:59;;;;;;;17.87;3.27;;;;;;;;;;10345858;28;20233;-72
2023/12/10 13:57:00;;;;;;;18.33;2.85;;;;;;;;;;10344894;28;20190;-72
2023/12/10 14:02:00;;;;;;;12.77;4.63;;;;;;;;;;10343792;28;20221;-72
2023/12/10 14:07:01;;;;;;;13.90;3.63;;;;;;;;;;10344531;28;20867;-73
2023/12/10 14:12:01;;;;;;;13.97;3.20;;;;;;;;;;10345850;28;20189;-72
2023/12/10 14:17:01;;;;;;;16.93;2.43;;;;;;;;;;10344236;28;20208;-72
2023/12/10 14:22:02;;;;;;;22.83;4.73;;;;;;;;;;10344856;28;20213;-72
2023/12/10 14:27:02;;;;;;;9.10;3.00;;;;;;;;;;10350001;28;20237;-72
2023/12/10 14:32:02;;;;;;;12.10;4.13;;;;;;;;;;10352390;28;20718;-72
2023/12/10 14:37:03;;;;;;;9.20;2.63;;;;;;;;;;10352542;28;20204;-72
2023/12/10 14:42:03;;;;;;;13.83;3.00;;;;;;;;;;10352584;28;20232;-72
2023/12/10 14:47:03;;;;;;;11.77;2.37;;;;;;;;;;10351940;28;20200;-72
2023/12/10 14:52:04;;;;;;;13.63;2.80;;;;;;;;;;10351538;28;20193;-72
2023/12/10 14:57:05;;;;;;;13.20;2.90;;;;;;;;;;10350162;28;20554;-72
2023/12/10 15:02:05;;;;;;;8.77;2.17;;;;;;;;;;10350877;28;20213;-72
2023/12/10 15:07:06;;;;;;;13.13;3.50;;;;;;;;;;10350653;28;20204;-72
2023/12/10 15:12:06;;;;;;;16.27;3.63;;;;;;;;;;10349158;28;20189;-72
2023/12/10 15:17:07;;;;;;;14.90;3.60;;;;;;;;;;10350340;28;20559;-72
2023/12/10 15:22:08;;;;;;;10.27;2.50;;;;;;;;;;10350541;28;20210;-73
2023/12/10 15:27:09;;;;;;;11.77;2.50;;;;;;;;;;10350205;28;20237;-72
2023/12/10 15:32:09;;;;;;;5.57;1.70;;;;;;;;;;10349978;28;20670;-73
2023/12/10 15:37:09;;;;;;;18.23;3.37;;;;;;;;;;10349529;28;20441;-73
2023/12/10 15:42:12;;;;;;;13.43;3.20;;;;;;;;;;10349696;28;20924;-73
2023/12/10 15:47:14;;;;;;;16.17;3.10;;;;;;;;;;10346864;28;20611;-72
2023/12/10 15:52:14;;;;;;;20.73;3.73;;;;;;;;;;10347333;28;20678;-73
2023/12/10 15:57:15;;;;;;;13.27;3.33;;;;;;;;;;10349143;28;20205;-72
2023/12/10 16:02:15;;;;;;;12.93;3.00;;;;;;;;;;10344975;28;20595;-73
2023/12/10 16:07:15;;;;;;;13.53;2.50;;;;;;;;;;10349578;28;20640;-73
2023/12/10 16:12:16;;;;;;;11.40;3.20;;;;;;;;;;10349494;28;20284;-73
2023/12/10 16:17:16;;;;;;;9.80;2.33;;;;;;;;;;10349267;28;20197;-73
2023/12/10 16:22:16;;;;;;;15.50;2.70;;;;;;;;;;10349872;28;20291;-73
2023/12/10 16:33:22;;;;;;;17.10;3.03;;;;;;;;;;10345420;28;20183;-73
2023/12/10 16:38:22;;;;;;;8.67;2.43;;;;;;;;;;10327164;28;20186;-73
2023/12/10 16:43:22;;;;;;;8.47;2.00;;;;;;;;;;10331586;28;20228;-72
2023/12/10 16:48:23;;;;;;;16.13;3.17;;;;;;;;;;10327554;28;20813;-73
2023/12/10 16:53:23;;;;;;;16.07;2.70;;;;;;;;;;10326895;28;20213;-73
2023/12/10 16:58:23;;;;;;;8.67;2.83;;;;;;;;;;10330778;28;20194;-72
2023/12/10 17:03:24;;;;;;;15.17;3.20;;;;;;;;;;10340331;28;21153;-73
2023/12/10 17:08:24;;;;;;;17.70;3.97;;;;;;;;;;10346725;28;20193;-72
2023/12/10 17:13:24;;;;;;;10.57;3.97;;;;;;;;;;10333197;28;20200;-73
2023/12/10 17:18:25;;;;;;;10.97;4.77;;;;;;;;;;10347293;28;20636;-72
2023/12/10 17:23:25;;;;;;;16.77;2.80;;;;;;;;;;10333989;28;20568;-72
2023/12/10 17:28:25;;;;;;;12.33;3.67;;;;;;;;;;10331007;28;20479;-72
2023/12/10 17:33:26;;;;;;;14.63;3.03;;;;;;;;;;10344678;28;20503;-72
2023/12/10 17:38:26;;;;;;;11.27;2.40;;;;;;;;;;10346994;28;20616;-72
2023/12/10 17:43:26;;;;;;;10.73;2.93;;;;;;;;;;10342494;28;20197;-72
2023/12/10 17:48:27;;;;;;;11.67;3.47;;;;;;;;;;10347288;28;20192;-72
2023/12/10 17:53:27;;;;;;;9.37;2.30;;;;;;;;;;10342110;28;20178;-72
2023/12/10 17:58:27;;;;;;;12.57;3.13;;;;;;;;;;10346314;28;20217;-72
2023/12/10 18:03:28;;;;;;;16.97;2.70;;;;;;;;;;10353352;28;20192;-72
2023/12/10 18:08:28;;;;;;;12.30;2.67;;;;;;;;;;10353299;28;20200;-72
2023/12/10 18:13:28;;;;;;;17.60;2.77;;;;;;;;;;10353195;28;20205;-72
2023/12/10 18:18:28;;;;;;;18.47;5.13;;;;;;;;;;10342595;28;20229;-72
2023/12/10 18:23:29;;;;;;;15.50;3.70;;;;;;;;;;10341625;28;20190;-73
2023/12/10 18:28:30;;;;;;;12.07;3.30;;;;;;;;;;10343749;28;20244;-73
2023/12/10 18:33:30;;;;;;;13.70;2.63;;;;;;;;;;10352071;28;20210;-73
2023/12/10 18:38:31;;;;;;;11.07;3.40;;;;;;;;;;10352572;28;20217;-73
2023/12/10 18:43:31;;;;;;;13.23;2.83;;;;;;;;;;10352175;28;20455;-73
2023/12/10 18:48:32;;;;;;;15.57;3.57;;;;;;;;;;10352060;28;20568;-73
2023/12/10 18:53:32;;;;;;;13.85;3.88;;;;;;;;;;10337443;28;20205;-73
2023/12/10 18:58:32;;;;;;;10.03;3.07;;;;;;;;;;10343532;28;20228;-73
2023/12/10 19:03:32;;;;;;;11.83;2.70;;;;;;;;;;10344308;28;20198;-73
2023/12/10 19:08:33;;;;;;;13.30;2.93;;;;;;;;;;10351250;28;20449;-73
2023/12/10 19:13:33;;;;;;;8.27;2.00;;;;;;;;;;10343263;28;20564;-73
2023/12/10 19:18:33;;;;;;;25.80;3.13;;;;;;;;;;10338341;28;20213;-73
2023/12/10 19:23:33;;;;;;;16.25;5.43;;;;;;;;;;10347722;28;20663;-73
2023/12/10 19:28:34;;;;;;;11.13;3.13;;;;;;;;;;10345045;28;20238;-73
2023/12/10 19:33:35;;;;;;;8.33;2.47;;;;;;;;;;10346714;28;20201;-73
2023/12/10 19:38:35;;;;;;;12.17;2.97;;;;;;;;;;10328767;28;20221;-72
2023/12/10 19:43:36;;;;;;;11.50;1.50;;;;;;;;;;10343039;28;20237;-73
2023/12/10 19:48:36;;;;;;;12.47;2.70;;;;;;;;;;10350607;28;20198;-73
2023/12/10 19:53:36;;;;;;;12.53;2.87;;;;;;;;;;10346103;28;20209;-72
2023/12/10 19:58:36;;;;;;;11.77;3.57;;;;;;;;;;10348301;28;20537;-72
2023/12/10 20:03:37;;;;;;;14.73;3.22;;;;;;;;;;10349144;28;20193;-73
2023/12/10 20:08:38;;;;;;;6.03;2.00;;;;;;;;;;10350381;28;20363;-72
2023/12/10 20:13:38;;;;;;;7.53;2.33;;;;;;;;;;10348964;28;20193;-72
2023/12/10 20:18:38;;;;;;;16.93;3.73;;;;;;;;;;10345369;28;20221;-72
2023/12/10 20:23:38;;;;;;;18.70;2.60;;;;;;;;;;10345071;28;20685;-72
2023/12/10 20:28:38;;;;;;;15.00;3.20;;;;;;;;;;10348906;28;20241;-72
2023/12/10 20:33:39;;;;;;;14.50;2.93;;;;;;;;;;10348622;28;20190;-72
2023/12/10 20:38:39;;;;;;;10.63;2.30;;;;;;;;;;10343960;28;20591;-72
2023/12/10 20:43:39;;;;;;;16.80;4.30;;;;;;;;;;10345049;28;20273;-72
2023/12/10 20:48:39;;;;;;;12.97;3.53;;;;;;;;;;10348680;28;20568;-73
2023/12/10 20:53:40;;;;;;;8.47;3.77;;;;;;;;;;10347615;28;20197;-72
2023/12/10 20:58:41;;;;;;;11.73;3.20;;;;;;;;;;10343541;28;20272;-72
2023/12/10 21:03:41;;;;;;;12.57;2.80;;;;;;;;;;10339161;28;20499;-73
2023/12/10 21:08:41;;;;;;;8.83;2.33;;;;;;;;;;10314995;28;20190;-72
2023/12/10 21:13:41;;;;;;;6.90;1.93;;;;;;;;;;10331408;28;20182;-73
2023/12/10 21:18:42;;;;;;;12.93;3.40;;;;;;;;;;10331785;28;20202;-72
2023/12/10 21:23:42;;;;;;;5.60;2.53;;;;;;;;;;10332205;28;20246;-72
2023/12/10 21:28:42;;;;;;;10.10;2.70;;;;;;;;;;10333329;28;20774;-72
2023/12/10 21:33:42;;;;;;;8.80;1.83;;;;;;;;;;10333059;28;20182;-72
2023/12/10 21:38:43;;;;;;;8.37;1.70;;;;;;;;;;10353104;28;20651;-72
2023/12/10 21:43:43;;;;;;;6.87;1.73;;;;;;;;;;10354706;28;20248;-72
2023/12/10 21:48:43;;;;;;;7.93;1.70;;;;;;;;;;10355853;28;20197;-72
2023/12/10 21:53:43;;;;;;;11.10;2.13;;;;;;;;;;10354867;28;20202;-72
2023/12/10 21:58:44;;;;;;;8.10;1.80;;;;;;;;;;10354284;28;20221;-74
2023/12/10 22:03:44;;;;;;;9.10;1.93;;;;;;;;;;10354086;28;20190;-73
2023/12/10 22:08:57;;;;;;;9.70;2.50;;;;;;;;;;10354168;28;20202;-70
2023/12/10 22:13:57;;;;;;;8.37;1.50;;;;;;;;;;10354675;28;20558;-74
2023/12/10 22:18:57;;;;;;;6.80;1.63;;;;;;;;;;10355088;28;20217;-74
2023/12/10 22:23:57;;;;;;;8.17;2.77;;;;;;;;;;10354703;28;20204;-73
2023/12/10 22:28:58;;;;;;;7.27;1.60;;;;;;;;;;10354321;28;20472;-74
2023/12/10 22:33:58;;;;;;;4.13;1.57;;;;;;;;;;10354524;28;20275;-73
2023/12/10 22:38:58;;;;;;;4.97;1.00;;;;;;;;;;10354341;28;20479;-74
2023/12/10 22:43:59;;;;;;;3.13;1.20;;;;;;;;;;10368790;28;20193;-73
2023/12/10 22:48:59;;;;;;;9.63;1.53;;;;;;;;;;10352946;28;20197;-72
2023/12/10 22:53:59;;;;;;;5.77;1.10;;;;;;;;;;10353070;28;20198;-73
2023/12/10 22:58:59;;;;;;;8.33;1.40;;;;;;;;;;10353165;28;20529;-72
2023/12/10 23:04:00;;;;;;;4.40;1.30;;;;;;;;;;10353735;28;20527;-73
2023/12/10 23:09:00;;;;;;;8.27;1.90;;;;;;;;;;10352828;28;20331;-72
2023/12/10 23:14:01;;;;;;;5.10;1.77;;;;;;;;;;10352971;28;20670;-72
2023/12/10 23:19:01;;;;;;;7.33;1.93;;;;;;;;;;10353033;28;20221;-72
2023/12/10 23:24:01;;;;;;;11.93;2.87;;;;;;;;;;10351964;28;20182;-72
2023/12/10 23:29:01;;;;;;;11.07;2.77;;;;;;;;;;10352914;28;20294;-73
2023/12/10 23:34:04;;;;;;;4.10;1.63;;;;;;;;;;10350432;28;20201;-73
2023/12/10 23:39:04;;;;;;;7.27;1.97;;;;;;;;;;10352078;28;20257;-72
2023/12/10 23:44:06;;;;;;;19.30;2.83;;;;;;;;;;10351438;28;20197;-73
2023/12/10 23:49:06;;;;;;;5.73;2.40;;;;;;;;;;10352321;28;20456;-72
2023/12/10 23:54:07;;;;;;;2.97;1.40;;;;;;;;;;10351251;28;20189;-72
2023/12/10 23:59:08;;;;;;;3.80;1.47;;;;;;;;;;10351361;28;20587;-72
